sensor_id;sensor_type;location;lat;lon;timestamp;P1;P2;P0
71097;PMS7003;58754;47.622;-2.986;2023-03-03T00:01:18;15.25;13.75;10.75
71097;PMS7003;58754;47.622;-2.986;2023-03-03T00:03:44;16.25;14.25;9.75
71097;PMS7003;58754;47.622;-2.986;2023-03-03T00:06:10;18.25;16.00;10.75
71097;PMS7003;58754;47.622;-2.986;2023-03-03T00:08:38;21.50;14.75;12.75
71097;PMS7003;58754;47.622;-2.986;2023-03-03T00:11:05;23.00;15.00;10.50
71097;PMS7003;58754;47.622;-2.986;2023-03-03T00:13:32;19.50;16.00;11.25
71097;PMS7003;58754;47.622;-2.986;2023-03-03T00:16:21;19.50;13.00;10.75
71097;PMS7003;58754;47.622;-2.986;2023-03-03T00:18:55;16.50;15.00;11.50
71097;PMS7003;58754;47.622;-2.986;2023-03-03T00:21:26;18.25;15.00;9.75
71097;PMS7003;58754;47.622;-2.986;2023-03-03T00:26:38;16.75;16.75;12.75
71097;PMS7003;58754;47.622;-2.986;2023-03-03T00:29:34;22.50;18.00;11.25
71097;PMS7003;58754;47.622;-2.986;2023-03-03T00:32:15;18.25;14.75;10.50
71097;PMS7003;58754;47.622;-2.986;2023-03-03T00:34:45;15.00;14.50;11.75
71097;PMS7003;58754;47.622;-2.986;2023-03-03T00:37:31;17.50;14.00;11.75
71097;PMS7003;58754;47.622;-2.986;2023-03-03T00:42:41;14.50;14.00;10.00
71097;PMS7003;58754;47.622;-2.986;2023-03-03T00:45:21;15.00;11.50;9.00
71097;PMS7003;58754;47.622;-2.986;2023-03-03T00:47:52;15.00;14.75;11.75
71097;PMS7003;58754;47.622;-2.986;2023-03-03T00:50:26;21.50;18.50;12.25
71097;PMS7003;58754;47.622;-2.986;2023-03-03T00:52:58;15.75;13.75;10.25
71097;PMS7003;58754;47.622;-2.986;2023-03-03T00:55:27;20.25;14.50;11.00
71097;PMS7003;58754;47.622;-2.986;2023-03-03T00:57:53;23.00;13.25;10.75
71097;PMS7003;58754;47.622;-2.986;2023-03-03T01:00:19;16.25;12.00;10.00
71097;PMS7003;58754;47.622;-2.986;2023-03-03T01:02:45;17.25;13.50;10.25
71097;PMS7003;58754;47.622;-2.986;2023-03-03T01:05:13;15.50;12.75;9.00
71097;PMS7003;58754;47.622;-2.986;2023-03-03T01:07:41;19.00;13.00;10.75
71097;PMS7003;58754;47.622;-2.986;2023-03-03T01:10:07;20.25;16.00;11.00
71097;PMS7003;58754;47.622;-2.986;2023-03-03T01:12:33;12.75;11.25;10.00
71097;PMS7003;58754;47.622;-2.986;2023-03-03T01:15:00;18.50;16.25;12.25
71097;PMS7003;58754;47.622;-2.986;2023-03-03T01:17:26;13.00;11.75;9.75
71097;PMS7003;58754;47.622;-2.986;2023-03-03T01:19:53;14.75;12.75;9.00
71097;PMS7003;58754;47.622;-2.986;2023-03-03T01:22:19;18.75;12.50;10.00
71097;PMS7003;58754;47.622;-2.986;2023-03-03T01:24:44;16.75;13.00;11.75
71097;PMS7003;58754;47.622;-2.986;2023-03-03T01:27:10;16.25;15.00;9.75
71097;PMS7003;58754;47.622;-2.986;2023-03-03T01:29:36;19.50;17.00;13.25
71097;PMS7003;58754;47.622;-2.986;2023-03-03T01:32:01;18.50;15.50;12.00
71097;PMS7003;58754;47.622;-2.986;2023-03-03T01:34:27;17.75;12.25;9.00
71097;PMS7003;58754;47.622;-2.986;2023-03-03T01:36:53;15.50;14.25;10.75
71097;PMS7003;58754;47.622;-2.986;2023-03-03T01:39:18;12.75;11.25;10.00
71097;PMS7003;58754;47.622;-2.986;2023-03-03T01:41:44;17.75;13.25;10.50
71097;PMS7003;58754;47.622;-2.986;2023-03-03T01:44:10;16.25;15.00;10.00
71097;PMS7003;58754;47.622;-2.986;2023-03-03T01:46:57;13.00;11.50;8.25
71097;PMS7003;58754;47.622;-2.986;2023-03-03T01:49:30;18.75;13.75;11.00
71097;PMS7003;58754;47.622;-2.986;2023-03-03T01:55:02;15.50;14.50;10.00
71097;PMS7003;58754;47.622;-2.986;2023-03-03T01:57:35;13.25;10.00;8.25
71097;PMS7003;58754;47.622;-2.986;2023-03-03T02:00:08;12.00;10.00;8.00
71097;PMS7003;58754;47.622;-2.986;2023-03-03T02:02:36;12.25;11.25;9.00
71097;PMS7003;58754;47.622;-2.986;2023-03-03T02:05:02;13.00;12.50;9.00
71097;PMS7003;58754;47.622;-2.986;2023-03-03T02:07:28;13.50;11.50;7.75
71097;PMS7003;58754;47.622;-2.986;2023-03-03T02:09:57;14.75;12.00;9.25
71097;PMS7003;58754;47.622;-2.986;2023-03-03T02:12:33;15.25;13.50;9.00
71097;PMS7003;58754;47.622;-2.986;2023-03-03T02:18:05;13.25;12.25;10.00
71097;PMS7003;58754;47.622;-2.986;2023-03-03T02:28:26;16.50;14.50;10.25
71097;PMS7003;58754;47.622;-2.986;2023-03-03T02:30:55;15.50;10.50;8.50
71097;PMS7003;58754;47.622;-2.986;2023-03-03T02:33:22;15.50;13.25;10.75
71097;PMS7003;58754;47.622;-2.986;2023-03-03T02:35:48;16.00;12.50;9.00
71097;PMS7003;58754;47.622;-2.986;2023-03-03T02:44:00;11.00;9.50;8.00
71097;PMS7003;58754;47.622;-2.986;2023-03-03T02:46:40;12.75;12.75;9.50
71097;PMS7003;58754;47.622;-2.986;2023-03-03T02:49:08;10.00;9.25;7.75
71097;PMS7003;58754;47.622;-2.986;2023-03-03T02:51:36;16.50;12.00;9.75
71097;PMS7003;58754;47.622;-2.986;2023-03-03T02:54:03;10.25;9.25;7.50
71097;PMS7003;58754;47.622;-2.986;2023-03-03T02:56:28;15.75;11.00;9.00
71097;PMS7003;58754;47.622;-2.986;2023-03-03T02:58:55;12.75;8.50;7.00
71097;PMS7003;58754;47.622;-2.986;2023-03-03T03:01:21;13.75;13.00;9.25
71097;PMS7003;58754;47.622;-2.986;2023-03-03T03:03:47;11.25;11.00;7.50
71097;PMS7003;58754;47.622;-2.986;2023-03-03T03:06:13;14.75;12.50;10.00
71097;PMS7003;58754;47.622;-2.986;2023-03-03T03:08:39;18.25;12.25;9.00
71097;PMS7003;58754;47.622;-2.986;2023-03-03T03:11:05;11.00;10.00;8.00
71097;PMS7003;58754;47.622;-2.986;2023-03-03T03:13:31;16.25;12.00;10.00
71097;PMS7003;58754;47.622;-2.986;2023-03-03T03:15:57;13.75;12.00;9.25
71097;PMS7003;58754;47.622;-2.986;2023-03-03T03:18:23;12.50;9.50;8.00
71097;PMS7003;58754;47.622;-2.986;2023-03-03T03:20:50;10.00;10.00;7.00
71097;PMS7003;58754;47.622;-2.986;2023-03-03T03:23:16;13.50;11.25;8.25
71097;PMS7003;58754;47.622;-2.986;2023-03-03T03:25:42;10.25;10.25;8.50
71097;PMS7003;58754;47.622;-2.986;2023-03-03T03:28:11;13.75;8.00;8.00
71097;PMS7003;58754;47.622;-2.986;2023-03-03T03:30:38;9.75;9.75;8.00
71097;PMS7003;58754;47.622;-2.986;2023-03-03T03:33:05;12.00;10.75;8.00
71097;PMS7003;58754;47.622;-2.986;2023-03-03T03:35:32;12.75;9.25;7.25
71097;PMS7003;58754;47.622;-2.986;2023-03-03T03:37:58;12.75;12.50;9.75
71097;PMS7003;58754;47.622;-2.986;2023-03-03T03:40:24;15.25;13.75;8.75
71097;PMS7003;58754;47.622;-2.986;2023-03-03T03:42:51;18.00;12.25;8.00
71097;PMS7003;58754;47.622;-2.986;2023-03-03T03:45:18;15.25;12.25;9.00
71097;PMS7003;58754;47.622;-2.986;2023-03-03T03:47:44;13.25;12.75;9.50
71097;PMS7003;58754;47.622;-2.986;2023-03-03T03:50:09;10.25;10.00;8.00
71097;PMS7003;58754;47.622;-2.986;2023-03-03T03:52:36;13.25;9.25;6.75
71097;PMS7003;58754;47.622;-2.986;2023-03-03T03:55:02;11.00;11.00;8.75
71097;PMS7003;58754;47.622;-2.986;2023-03-03T03:57:29;9.75;9.75;7.75
71097;PMS7003;58754;47.622;-2.986;2023-03-03T03:59:54;11.50;10.00;7.00
71097;PMS7003;58754;47.622;-2.986;2023-03-03T04:02:20;12.75;10.50;8.25
71097;PMS7003;58754;47.622;-2.986;2023-03-03T04:04:46;8.50;8.00;6.00
71097;PMS7003;58754;47.622;-2.986;2023-03-03T04:07:12;11.75;9.00;7.50
71097;PMS7003;58754;47.622;-2.986;2023-03-03T04:09:37;10.00;10.00;7.75
71097;PMS7003;58754;47.622;-2.986;2023-03-03T04:12:03;12.00;11.00;7.50
71097;PMS7003;58754;47.622;-2.986;2023-03-03T04:14:29;11.50;10.25;7.75
71097;PMS7003;58754;47.622;-2.986;2023-03-03T04:16:55;15.00;12.00;8.00
71097;PMS7003;58754;47.622;-2.986;2023-03-03T04:19:21;11.00;10.00;7.75
71097;PMS7003;58754;47.622;-2.986;2023-03-03T04:21:47;11.75;10.25;9.00
71097;PMS7003;58754;47.622;-2.986;2023-03-03T04:24:13;10.00;9.25;7.00
71097;PMS7003;58754;47.622;-2.986;2023-03-03T04:26:38;11.75;9.25;7.50
71097;PMS7003;58754;47.622;-2.986;2023-03-03T04:29:05;12.25;9.75;7.75
71097;PMS7003;58754;47.622;-2.986;2023-03-03T04:31:31;13.50;10.25;8.25
71097;PMS7003;58754;47.622;-2.986;2023-03-03T04:33:56;10.50;9.50;7.25
71097;PMS7003;58754;47.622;-2.986;2023-03-03T04:36:22;11.75;10.00;7.50
71097;PMS7003;58754;47.622;-2.986;2023-03-03T04:38:48;10.25;8.00;7.00
71097;PMS7003;58754;47.622;-2.986;2023-03-03T04:41:14;6.75;6.50;5.50
71097;PMS7003;58754;47.622;-2.986;2023-03-03T04:43:41;14.25;9.00;7.75
71097;PMS7003;58754;47.622;-2.986;2023-03-03T04:46:06;11.00;8.25;6.50
71097;PMS7003;58754;47.622;-2.986;2023-03-03T04:48:32;9.00;7.50;6.00
71097;PMS7003;58754;47.622;-2.986;2023-03-03T04:50:58;12.50;9.00;7.00
71097;PMS7003;58754;47.622;-2.986;2023-03-03T04:53:24;11.00;10.00;7.75
71097;PMS7003;58754;47.622;-2.986;2023-03-03T04:55:50;11.00;9.00;7.00
71097;PMS7003;58754;47.622;-2.986;2023-03-03T04:58:19;9.25;8.00;6.00
71097;PMS7003;58754;47.622;-2.986;2023-03-03T05:00:54;9.75;7.75;6.00
71097;PMS7003;58754;47.622;-2.986;2023-03-03T05:03:21;9.25;7.75;6.00
71097;PMS7003;58754;47.622;-2.986;2023-03-03T05:05:47;9.25;9.25;6.75
71097;PMS7003;58754;47.622;-2.986;2023-03-03T05:08:13;9.00;9.00;6.50
71097;PMS7003;58754;47.622;-2.986;2023-03-03T05:10:39;9.50;9.50;7.75
71097;PMS7003;58754;47.622;-2.986;2023-03-03T05:13:05;11.00;10.25;6.50
71097;PMS7003;58754;47.622;-2.986;2023-03-03T05:15:32;9.00;7.00;5.75
71097;PMS7003;58754;47.622;-2.986;2023-03-03T05:17:58;9.75;9.25;7.00
71097;PMS7003;58754;47.622;-2.986;2023-03-03T05:20:24;10.00;8.25;6.75
71097;PMS7003;58754;47.622;-2.986;2023-03-03T05:22:50;10.00;9.00;8.00
71097;PMS7003;58754;47.622;-2.986;2023-03-03T05:25:16;9.25;8.25;6.25
71097;PMS7003;58754;47.622;-2.986;2023-03-03T05:27:42;9.50;7.75;6.25
71097;PMS7003;58754;47.622;-2.986;2023-03-03T05:30:08;11.50;9.00;7.25
71097;PMS7003;58754;47.622;-2.986;2023-03-03T05:32:35;8.75;7.00;5.50
71097;PMS7003;58754;47.622;-2.986;2023-03-03T05:35:02;6.75;6.75;5.75
71097;PMS7003;58754;47.622;-2.986;2023-03-03T05:37:28;7.75;7.75;5.00
71097;PMS7003;58754;47.622;-2.986;2023-03-03T05:39:54;7.25;7.00;5.00
71097;PMS7003;58754;47.622;-2.986;2023-03-03T05:42:19;10.75;7.75;6.25
71097;PMS7003;58754;47.622;-2.986;2023-03-03T05:44:46;7.25;7.25;5.50
71097;PMS7003;58754;47.622;-2.986;2023-03-03T05:47:11;9.25;7.00;6.00
71097;PMS7003;58754;47.622;-2.986;2023-03-03T05:49:37;9.00;6.00;5.00
71097;PMS7003;58754;47.622;-2.986;2023-03-03T05:52:03;6.00;5.50;4.50
71097;PMS7003;58754;47.622;-2.986;2023-03-03T05:54:30;9.00;8.25;7.00
71097;PMS7003;58754;47.622;-2.986;2023-03-03T05:56:56;8.00;8.00;6.00
71097;PMS7003;58754;47.622;-2.986;2023-03-03T05:59:22;12.75;7.25;6.00
71097;PMS7003;58754;47.622;-2.986;2023-03-03T06:01:48;9.00;7.00;5.75
71097;PMS7003;58754;47.622;-2.986;2023-03-03T06:04:14;7.00;7.00;5.50
71097;PMS7003;58754;47.622;-2.986;2023-03-03T06:06:40;9.00;6.25;5.00
71097;PMS7003;58754;47.622;-2.986;2023-03-03T06:09:06;8.75;8.00;6.75
71097;PMS7003;58754;47.622;-2.986;2023-03-03T06:11:31;10.50;9.00;6.00
71097;PMS7003;58754;47.622;-2.986;2023-03-03T06:13:57;9.75;7.75;6.50
71097;PMS7003;58754;47.622;-2.986;2023-03-03T06:16:23;10.50;8.00;6.50
71097;PMS7003;58754;47.622;-2.986;2023-03-03T06:18:49;9.75;8.50;7.00
71097;PMS7003;58754;47.622;-2.986;2023-03-03T06:21:14;9.00;7.00;6.00
71097;PMS7003;58754;47.622;-2.986;2023-03-03T06:23:40;9.25;8.00;6.00
71097;PMS7003;58754;47.622;-2.986;2023-03-03T06:26:06;11.25;9.00;7.00
71097;PMS7003;58754;47.622;-2.986;2023-03-03T06:28:32;8.50;8.50;5.75
71097;PMS7003;58754;47.622;-2.986;2023-03-03T06:30:57;7.75;7.75;5.75
71097;PMS7003;58754;47.622;-2.986;2023-03-03T06:33:23;8.25;7.00;5.25
71097;PMS7003;58754;47.622;-2.986;2023-03-03T06:35:49;8.00;8.00;6.00
71097;PMS7003;58754;47.622;-2.986;2023-03-03T06:38:16;8.50;7.00;5.75
71097;PMS7003;58754;47.622;-2.986;2023-03-03T06:40:41;6.25;6.25;5.25
71097;PMS7003;58754;47.622;-2.986;2023-03-03T06:43:07;11.00;8.00;6.00
71097;PMS7003;58754;47.622;-2.986;2023-03-03T06:45:34;8.25;6.25;5.25
71097;PMS7003;58754;47.622;-2.986;2023-03-03T06:47:59;6.00;6.00;5.00
71097;PMS7003;58754;47.622;-2.986;2023-03-03T06:50:26;7.75;6.00;5.00
71097;PMS7003;58754;47.622;-2.986;2023-03-03T06:52:57;6.50;6.50;6.00
71097;PMS7003;58754;47.622;-2.986;2023-03-03T06:55:29;7.25;5.25;4.25
71097;PMS7003;58754;47.622;-2.986;2023-03-03T06:57:55;12.00;8.25;6.50
71097;PMS7003;58754;47.622;-2.986;2023-03-03T07:00:24;8.75;6.75;6.00
71097;PMS7003;58754;47.622;-2.986;2023-03-03T07:03:03;8.50;6.50;5.50
71097;PMS7003;58754;47.622;-2.986;2023-03-03T07:05:36;7.00;7.00;6.00
71097;PMS7003;58754;47.622;-2.986;2023-03-03T07:08:02;10.50;7.00;6.00
71097;PMS7003;58754;47.622;-2.986;2023-03-03T07:10:34;6.50;6.25;5.25
71097;PMS7003;58754;47.622;-2.986;2023-03-03T07:13:22;7.75;6.00;5.00
71097;PMS7003;58754;47.622;-2.986;2023-03-03T07:15:54;7.50;6.00;5.00
71097;PMS7003;58754;47.622;-2.986;2023-03-03T07:21:15;9.00;8.00;6.25
71097;PMS7003;58754;47.622;-2.986;2023-03-03T07:23:44;8.75;5.75;5.00
71097;PMS7003;58754;47.622;-2.986;2023-03-03T07:26:14;7.50;7.00;4.75
71097;PMS7003;58754;47.622;-2.986;2023-03-03T07:29:02;10.25;7.00;5.25
71097;PMS7003;58754;47.622;-2.986;2023-03-03T07:31:56;7.00;7.00;5.50
71097;PMS7003;58754;47.622;-2.986;2023-03-03T07:34:33;6.75;6.75;5.75
71097;PMS7003;58754;47.622;-2.986;2023-03-03T07:37:03;6.75;6.00;5.00
71097;PMS7003;58754;47.622;-2.986;2023-03-03T07:39:38;5.00;5.00;4.25
71097;PMS7003;58754;47.622;-2.986;2023-03-03T07:44:34;6.00;6.00;5.00
71097;PMS7003;58754;47.622;-2.986;2023-03-03T07:47:11;6.25;5.75;5.25
71097;PMS7003;58754;47.622;-2.986;2023-03-03T07:49:44;8.00;7.00;6.00
71097;PMS7003;58754;47.622;-2.986;2023-03-03T07:52:23;4.25;4.25;4.00
71097;PMS7003;58754;47.622;-2.986;2023-03-03T07:54:52;6.00;6.00;4.50
71097;PMS7003;58754;47.622;-2.986;2023-03-03T07:57:23;8.50;7.00;4.25
71097;PMS7003;58754;47.622;-2.986;2023-03-03T08:05:38;5.50;4.75;4.00
71097;PMS7003;58754;47.622;-2.986;2023-03-03T08:08:11;10.25;6.75;5.00
71097;PMS7003;58754;47.622;-2.986;2023-03-03T08:10:51;5.00;4.25;3.75
71097;PMS7003;58754;47.622;-2.986;2023-03-03T08:13:19;8.00;6.00;4.00
71097;PMS7003;58754;47.622;-2.986;2023-03-03T08:16:33;7.00;4.75;4.00
71097;PMS7003;58754;47.622;-2.986;2023-03-03T08:18:37;6.25;6.00;4.75
71097;PMS7003;58754;47.622;-2.986;2023-03-03T08:21:06;6.25;5.50;4.25
71097;PMS7003;58754;47.622;-2.986;2023-03-03T08:23:36;8.00;7.25;5.00
71097;PMS7003;58754;47.622;-2.986;2023-03-03T08:26:02;8.25;6.75;6.00
71097;PMS7003;58754;47.622;-2.986;2023-03-03T08:28:28;7.00;7.00;5.50
71097;PMS7003;58754;47.622;-2.986;2023-03-03T08:30:53;9.00;7.75;5.75
71097;PMS7003;58754;47.622;-2.986;2023-03-03T08:33:19;9.50;8.00;6.50
71097;PMS7003;58754;47.622;-2.986;2023-03-03T08:35:45;9.25;6.00;5.00
71097;PMS7003;58754;47.622;-2.986;2023-03-03T08:38:12;8.25;7.00;6.00
71097;PMS7003;58754;47.622;-2.986;2023-03-03T08:40:39;6.25;6.25;5.25
71097;PMS7003;58754;47.622;-2.986;2023-03-03T08:43:05;8.00;7.25;5.00
71097;PMS7003;58754;47.622;-2.986;2023-03-03T08:45:31;7.25;7.00;5.25
71097;PMS7003;58754;47.622;-2.986;2023-03-03T08:47:58;10.75;8.75;7.25
71097;PMS7003;58754;47.622;-2.986;2023-03-03T08:50:26;11.00;10.00;8.00
71097;PMS7003;58754;47.622;-2.986;2023-03-03T08:52:52;11.75;10.25;7.25
71097;PMS7003;58754;47.622;-2.986;2023-03-03T08:55:18;14.50;10.50;7.00
71097;PMS7003;58754;47.622;-2.986;2023-03-03T08:57:44;15.00;12.75;9.25
71097;PMS7003;58754;47.622;-2.986;2023-03-03T09:00:11;13.25;10.00;8.00
71097;PMS7003;58754;47.622;-2.986;2023-03-03T09:02:39;12.25;11.25;8.00
71097;PMS7003;58754;47.622;-2.986;2023-03-03T09:05:05;15.75;9.00;7.50
71097;PMS7003;58754;47.622;-2.986;2023-03-03T09:07:31;13.75;13.25;10.50
71097;PMS7003;58754;47.622;-2.986;2023-03-03T09:09:57;16.50;14.75;9.00
71097;PMS7003;58754;47.622;-2.986;2023-03-03T09:12:30;17.75;10.25;6.75
71097;PMS7003;58754;47.622;-2.986;2023-03-03T09:17:59;18.25;12.50;10.00
71097;PMS7003;58754;47.622;-2.986;2023-03-03T09:20:37;18.25;14.00;10.75
71097;PMS7003;58754;47.622;-2.986;2023-03-03T09:25:48;19.00;15.00;10.00
71097;PMS7003;58754;47.622;-2.986;2023-03-03T09:28:28;17.25;13.00;10.00
71097;PMS7003;58754;47.622;-2.986;2023-03-03T09:30:56;19.50;16.75;11.00
71097;PMS7003;58754;47.622;-2.986;2023-03-03T09:33:43;22.75;17.25;10.50
71097;PMS7003;58754;47.622;-2.986;2023-03-03T09:38:59;14.75;14.00;11.25
71097;PMS7003;58754;47.622;-2.986;2023-03-03T09:41:44;16.00;14.75;11.00
71097;PMS7003;58754;47.622;-2.986;2023-03-03T09:55:49;17.50;16.00;11.50
71097;PMS7003;58754;47.622;-2.986;2023-03-03T09:58:59;24.25;18.50;11.25
71097;PMS7003;58754;47.622;-2.986;2023-03-03T10:04:32;21.00;18.50;13.50
71097;PMS7003;58754;47.622;-2.986;2023-03-03T10:15:46;24.50;21.00;15.75
71097;PMS7003;58754;47.622;-2.986;2023-03-03T10:18:34;25.00;21.00;12.25
71097;PMS7003;58754;47.622;-2.986;2023-03-03T10:24:35;17.25;13.25;9.75
71097;PMS7003;58754;47.622;-2.986;2023-03-03T10:30:39;26.25;22.50;16.00
71097;PMS7003;58754;47.622;-2.986;2023-03-03T10:44:44;29.00;24.50;16.00
71097;PMS7003;58754;47.622;-2.986;2023-03-03T10:47:22;25.75;22.50;14.25
71097;PMS7003;58754;47.622;-2.986;2023-03-03T10:49:55;29.50;25.00;17.25
71097;PMS7003;58754;47.622;-2.986;2023-03-03T10:52:38;27.00;21.50;15.00
71097;PMS7003;58754;47.622;-2.986;2023-03-03T11:03:35;29.50;24.25;16.00
71097;PMS7003;58754;47.622;-2.986;2023-03-03T11:06:37;22.50;19.25;15.25
71097;PMS7003;58754;47.622;-2.986;2023-03-03T11:20:31;23.75;19.25;12.75
71097;PMS7003;58754;47.622;-2.986;2023-03-03T11:26:08;29.25;21.75;14.50
71097;PMS7003;58754;47.622;-2.986;2023-03-03T11:28:54;25.50;24.25;17.00
71097;PMS7003;58754;47.622;-2.986;2023-03-03T11:31:37;26.00;23.00;16.00
71097;PMS7003;58754;47.622;-2.986;2023-03-03T11:39:44;27.75;21.00;15.75
71097;PMS7003;58754;47.622;-2.986;2023-03-03T11:55:35;31.75;23.75;16.00
71097;PMS7003;58754;47.622;-2.986;2023-03-03T12:00:58;27.75;20.00;15.00
71097;PMS7003;58754;47.622;-2.986;2023-03-03T12:03:44;28.75;24.75;18.00
71097;PMS7003;58754;47.622;-2.986;2023-03-03T12:11:50;27.00;20.50;13.00
71097;PMS7003;58754;47.622;-2.986;2023-03-03T12:26:06;27.00;21.50;14.00
71097;PMS7003;58754;47.622;-2.986;2023-03-03T12:28:52;26.75;20.25;13.75
71097;PMS7003;58754;47.622;-2.986;2023-03-03T12:31:43;28.00;20.50;13.75
71097;PMS7003;58754;47.622;-2.986;2023-03-03T12:34:23;27.75;22.50;15.25
71097;PMS7003;58754;47.622;-2.986;2023-03-03T12:36:58;25.50;23.50;16.00
71097;PMS7003;58754;47.622;-2.986;2023-03-03T12:48:27;23.25;17.25;12.75
71097;PMS7003;58754;47.622;-2.986;2023-03-03T12:56:50;23.00;18.25;14.00
71097;PMS7003;58754;47.622;-2.986;2023-03-03T13:07:41;24.25;19.50;14.75
71097;PMS7003;58754;47.622;-2.986;2023-03-03T13:10:33;23.50;18.50;13.00
71097;PMS7003;58754;47.622;-2.986;2023-03-03T13:15:30;22.50;18.75;12.50
71097;PMS7003;58754;47.622;-2.986;2023-03-03T13:20:48;25.25;19.00;13.75
71097;PMS7003;58754;47.622;-2.986;2023-03-03T13:28:57;20.25;17.00;13.75
71097;PMS7003;58754;47.622;-2.986;2023-03-03T13:31:47;18.75;16.00;12.00
71097;PMS7003;58754;47.622;-2.986;2023-03-03T13:34:29;22.00;19.25;12.75
71097;PMS7003;58754;47.622;-2.986;2023-03-03T13:42:27;18.75;17.25;12.25
71097;PMS7003;58754;47.622;-2.986;2023-03-03T13:45:02;15.00;13.75;11.25
71097;PMS7003;58754;47.622;-2.986;2023-03-03T13:47:44;18.25;17.50;13.00
71097;PMS7003;58754;47.622;-2.986;2023-03-03T13:50:19;19.00;16.50;11.25
71097;PMS7003;58754;47.622;-2.986;2023-03-03T13:53:23;18.75;16.50;13.00
71097;PMS7003;58754;47.622;-2.986;2023-03-03T13:56:21;18.75;15.75;12.00
71097;PMS7003;58754;47.622;-2.986;2023-03-03T14:07:19;9.25;9.25;8.25
71097;PMS7003;58754;47.622;-2.986;2023-03-03T14:12:46;16.25;13.50;10.50
71097;PMS7003;58754;47.622;-2.986;2023-03-03T14:15:30;20.00;15.00;11.00
71097;PMS7003;58754;47.622;-2.986;2023-03-03T14:21:03;19.50;16.50;10.75
71097;PMS7003;58754;47.622;-2.986;2023-03-03T14:26:27;18.00;17.00;10.00
71097;PMS7003;58754;47.622;-2.986;2023-03-03T14:29:03;22.75;19.75;13.50
71097;PMS7003;58754;47.622;-2.986;2023-03-03T14:31:40;20.50;17.25;12.50
71097;PMS7003;58754;47.622;-2.986;2023-03-03T14:40:09;14.75;12.25;9.75
71097;PMS7003;58754;47.622;-2.986;2023-03-03T14:42:45;13.00;13.00;9.50
71097;PMS7003;58754;47.622;-2.986;2023-03-03T14:45:22;20.50;15.00;10.00
71097;PMS7003;58754;47.622;-2.986;2023-03-03T14:48:21;18.00;14.00;7.75
71097;PMS7003;58754;47.622;-2.986;2023-03-03T14:53:36;21.50;17.00;11.25
71097;PMS7003;58754;47.622;-2.986;2023-03-03T14:56:20;17.00;17.00;10.00
71097;PMS7003;58754;47.622;-2.986;2023-03-03T14:59:19;20.50;15.00;10.00
71097;PMS7003;58754;47.622;-2.986;2023-03-03T15:04:40;16.00;16.00;11.00
71097;PMS7003;58754;47.622;-2.986;2023-03-03T15:10:06;14.75;12.25;7.75
71097;PMS7003;58754;47.622;-2.986;2023-03-03T15:15:03;11.75;11.25;8.00
71097;PMS7003;58754;47.622;-2.986;2023-03-03T15:17:37;18.75;14.25;10.75
71097;PMS7003;58754;47.622;-2.986;2023-03-03T15:28:30;14.25;14.25;9.75
71097;PMS7003;58754;47.622;-2.986;2023-03-03T15:39:42;15.75;11.25;9.75
71097;PMS7003;58754;47.622;-2.986;2023-03-03T15:56:24;11.75;11.25;9.75
71097;PMS7003;58754;47.622;-2.986;2023-03-03T16:03:21;14.25;12.75;8.75
71097;PMS7003;58754;47.622;-2.986;2023-03-03T16:17:05;14.50;13.00;8.00
71097;PMS7003;58754;47.622;-2.986;2023-03-03T16:25:51;9.50;7.00;4.25
71097;PMS7003;58754;47.622;-2.986;2023-03-03T16:37:00;9.50;9.50;7.00
71097;PMS7003;58754;47.622;-2.986;2023-03-03T16:39:55;10.75;9.00;7.00
71097;PMS7003;58754;47.622;-2.986;2023-03-03T16:44:56;8.75;8.00;6.00
71097;PMS7003;58754;47.622;-2.986;2023-03-03T16:52:58;11.25;8.25;7.25
71097;PMS7003;58754;47.622;-2.986;2023-03-03T16:55:29;9.50;8.50;6.25
71097;PMS7003;58754;47.622;-2.986;2023-03-03T16:58:07;8.25;7.50;6.00
71097;PMS7003;58754;47.622;-2.986;2023-03-03T17:11:56;10.00;9.00;8.00
71097;PMS7003;58754;47.622;-2.986;2023-03-03T17:34:30;8.00;7.00;5.75
71097;PMS7003;58754;47.622;-2.986;2023-03-03T17:40:16;9.00;7.50;6.50
71097;PMS7003;58754;47.622;-2.986;2023-03-03T17:45:42;4.50;4.00;2.00
71097;PMS7003;58754;47.622;-2.986;2023-03-03T17:48:33;9.00;6.75;5.25
71097;PMS7003;58754;47.622;-2.986;2023-03-03T17:51:24;8.25;6.00;4.00
71097;PMS7003;58754;47.622;-2.986;2023-03-03T18:03:07;9.25;7.00;7.00
71097;PMS7003;58754;47.622;-2.986;2023-03-03T18:14:04;8.25;6.75;6.00
71097;PMS7003;58754;47.622;-2.986;2023-03-03T18:22:40;8.25;5.75;4.50
71097;PMS7003;58754;47.622;-2.986;2023-03-03T18:25:21;6.50;5.75;5.00
71097;PMS7003;58754;47.622;-2.986;2023-03-03T18:48:56;6.75;6.25;3.75
71097;PMS7003;58754;47.622;-2.986;2023-03-03T18:57:03;9.25;6.50;5.25
71097;PMS7003;58754;47.622;-2.986;2023-03-03T19:04:51;7.00;5.00;4.25
71097;PMS7003;58754;47.622;-2.986;2023-03-03T19:07:22;7.00;4.00;3.75
71097;PMS7003;58754;47.622;-2.986;2023-03-03T19:09:52;6.00;4.00;4.00
71097;PMS7003;58754;47.622;-2.986;2023-03-03T19:17:59;4.75;4.75;4.00
71097;PMS7003;58754;47.622;-2.986;2023-03-03T19:20:42;9.50;5.00;5.00
71097;PMS7003;58754;47.622;-2.986;2023-03-03T19:28:53;5.00;5.00;4.00
71097;PMS7003;58754;47.622;-2.986;2023-03-03T19:31:29;7.00;4.25;3.75
71097;PMS7003;58754;47.622;-2.986;2023-03-03T19:48:03;7.50;5.00;4.00
71097;PMS7003;58754;47.622;-2.986;2023-03-03T19:50:45;5.00;5.00;4.00
71097;PMS7003;58754;47.622;-2.986;2023-03-03T19:56:01;6.00;5.75;5.00
71097;PMS7003;58754;47.622;-2.986;2023-03-03T19:58:54;4.75;4.75;4.00
71097;PMS7003;58754;47.622;-2.986;2023-03-03T20:04:11;7.50;5.00;4.00
71097;PMS7003;58754;47.622;-2.986;2023-03-03T20:10:07;8.00;5.00;4.00
71097;PMS7003;58754;47.622;-2.986;2023-03-03T20:15:28;5.00;5.00;4.25
71097;PMS7003;58754;47.622;-2.986;2023-03-03T20:27:23;6.00;4.75;3.75
71097;PMS7003;58754;47.622;-2.986;2023-03-03T20:30:16;9.00;5.00;4.25
71097;PMS7003;58754;47.622;-2.986;2023-03-03T20:41:28;5.25;5.25;4.25
71097;PMS7003;58754;47.622;-2.986;2023-03-03T20:44:53;6.25;4.00;3.25
71097;PMS7003;58754;47.622;-2.986;2023-03-03T20:55:20;4.00;4.00;3.00
71097;PMS7003;58754;47.622;-2.986;2023-03-03T20:57:52;3.25;2.75;2.25
71097;PMS7003;58754;47.622;-2.986;2023-03-03T21:00:36;7.25;5.75;4.75
71097;PMS7003;58754;47.622;-2.986;2023-03-03T21:06:06;4.75;4.75;4.00
71097;PMS7003;58754;47.622;-2.986;2023-03-03T21:08:57;4.00;4.00;3.75
71097;PMS7003;58754;47.622;-2.986;2023-03-03T21:11:41;3.50;2.75;2.25
71097;PMS7003;58754;47.622;-2.986;2023-03-03T21:14:27;6.00;4.75;4.50
71097;PMS7003;58754;47.622;-2.986;2023-03-03T21:16:58;5.00;4.50;4.00
71097;PMS7003;58754;47.622;-2.986;2023-03-03T21:19:30;5.00;5.00;4.50
71097;PMS7003;58754;47.622;-2.986;2023-03-03T21:21:58;5.75;3.00;3.00
71097;PMS7003;58754;47.622;-2.986;2023-03-03T21:25:10;4.50;4.50;4.00
71097;PMS7003;58754;47.622;-2.986;2023-03-03T21:30:00;6.50;5.75;4.25
71097;PMS7003;58754;47.622;-2.986;2023-03-03T21:32:46;4.50;4.00;3.75
71097;PMS7003;58754;47.622;-2.986;2023-03-03T21:35:17;5.00;5.00;4.00
71097;PMS7003;58754;47.622;-2.986;2023-03-03T21:40:12;4.00;4.00;4.00
71097;PMS7003;58754;47.622;-2.986;2023-03-03T21:42:41;4.75;4.75;4.00
71097;PMS7003;58754;47.622;-2.986;2023-03-03T21:45:12;4.25;4.25;3.75
71097;PMS7003;58754;47.622;-2.986;2023-03-03T21:47:40;4.00;3.50;3.00
71097;PMS7003;58754;47.622;-2.986;2023-03-03T21:50:06;4.50;4.50;4.00
71097;PMS7003;58754;47.622;-2.986;2023-03-03T21:52:32;6.00;5.00;4.50
71097;PMS7003;58754;47.622;-2.986;2023-03-03T21:54:58;5.25;5.00;4.50